Kollumerzwaag, Netherlands
Current Conditions -  °F | °C
As of 3:41 PM on Monday 26 Jan 2015 (Local Time) from EHLW Reporting Station
Overcast Overcast  
Wind Chill: 37°   Ceiling: 5800
Heat Index: 45°   Visibility: 6mi
Dew Point: 39°   Wind: 16mph
Humidity: 81%   Direction: 300°WNW
Pressure: 29.97"   Gusts: NA
Location:  53.26°N, 6.08°E
Report Text: EHLW 261441Z AUTO 30014KT 9999 SCT021/// OVC058/// 07/04 Q1015 WHT 31013KT 9999 SCT026
Loading
Personal Weather Stations






























Interactive Weather Map New forecast layout! Learn more

10-Day Weather Forecast

Advertisements
Track Severe Weather on mobile